Time;durP1;ratioP1;P1;durP2;ratioP2;P2;SDS_P1;SDS_P2;PMS_P1;PMS_P2;Temp;Humidity;BMP_temperature;BMP_pressure;BME280_temperature;BME280_humidity;BME280_pressure;Samples;Min_cycle;Max_cycle;Signal;HPM_P1;HPM_P2
2023/08/15 00:00:05;;;;;;;12.73;7.07;;;22.80;98.00;;;;;;5053326;28;20461;-73
2023/08/15 00:02:32;;;;;;;12.40;6.63;;;22.80;98.00;;;;;;5052772;28;20520;-73
2023/08/15 00:04:59;;;;;;;9.93;6.10;;;22.80;98.00;;;;;;5053406;28;20485;-73
2023/08/15 00:07:27;;;;;;;11.73;6.40;;;22.70;98.00;;;;;;5053289;28;20453;-73
2023/08/15 00:09:54;;;;;;;12.73;6.20;;;22.70;98.00;;;;;;5053035;28;20484;-73
2023/08/15 00:12:22;;;;;;;9.97;5.93;;;22.80;98.00;;;;;;5052805;28;20453;-73
2023/08/15 00:14:49;;;;;;;9.83;6.17;;;22.90;98.00;;;;;;5052389;28;20457;-73
2023/08/15 00:17:16;;;;;;;12.03;6.40;;;22.80;98.00;;;;;;5052691;28;20473;-73
2023/08/15 00:19:43;;;;;;;9.67;5.40;;;22.70;98.00;;;;;;5052621;28;20450;-74
2023/08/15 00:22:12;;;;;;;11.80;6.93;;;22.80;98.00;;;;;;5052686;28;20472;-73
2023/08/15 00:24:39;;;;;;;8.23;5.60;;;22.80;98.00;;;;;;5052464;28;20453;-73
2023/08/15 00:27:06;;;;;;;19.33;6.87;;;22.80;98.00;;;;;;5052611;28;20850;-73
2023/08/15 00:29:34;;;;;;;10.57;6.23;;;22.70;98.00;;;;;;5052602;28;20453;-73
2023/08/15 00:32:02;;;;;;;10.00;5.77;;;22.60;98.00;;;;;;5052166;28;20531;-74
2023/08/15 00:34:29;;;;;;;9.17;6.00;;;22.50;98.00;;;;;;5052646;28;20445;-72
2023/08/15 00:36:56;;;;;;;12.30;6.80;;;22.50;98.00;;;;;;5052527;28;20453;-74
2023/08/15 00:39:23;;;;;;;11.70;6.87;;;22.40;98.00;;;;;;5052723;28;20461;-73
2023/08/15 00:41:50;;;;;;;11.13;6.17;;;22.30;98.00;;;;;;5052401;28;20449;-73
2023/08/15 00:44:17;;;;;;;10.77;6.50;;;22.40;98.00;;;;;;5051789;28;20813;-73
2023/08/15 00:46:47;;;;;;;11.60;6.60;;;22.40;98.00;;;;;;5052379;28;20453;-73
2023/08/15 00:49:14;;;;;;;13.73;6.60;;;22.50;98.00;;;;;;5052436;28;20454;-73
2023/08/15 00:51:42;;;;;;;13.33;6.17;;;22.50;98.00;;;;;;5052702;28;20930;-73
2023/08/15 00:54:09;;;;;;;10.70;6.00;;;22.60;98.00;;;;;;5052188;28;20465;-73
2023/08/15 00:56:36;;;;;;;13.33;6.50;;;22.50;98.00;;;;;;5052205;28;20461;-73
2023/08/15 00:59:04;;;;;;;10.70;6.37;;;22.40;98.00;;;;;;5034367;28;20464;-73
2023/08/15 01:01:39;;;;;;;10.20;6.13;;;22.20;98.00;;;;;;5052237;28;20941;-73
2023/08/15 01:04:09;;;;;;;11.13;6.70;;;22.20;98.00;;;;;;5051947;28;20485;-73
2023/08/15 01:06:36;;;;;;;11.40;6.30;;;22.30;98.00;;;;;;5052089;28;20476;-73
2023/08/15 01:09:03;;;;;;;10.10;6.50;;;22.30;98.00;;;;;;5051769;28;20807;-73
2023/08/15 01:11:37;;;;;;;10.60;6.13;;;22.30;98.00;;;;;;5051983;28;20499;-73
2023/08/15 01:14:10;;;;;;;10.40;6.20;;;22.20;98.00;;;;;;5051917;28;20465;-72
2023/08/15 01:16:42;;;;;;;10.23;6.07;;;22.00;98.00;;;;;;5051715;28;20456;-74
2023/08/15 01:19:24;;;;;;;10.50;6.17;;;22.00;98.00;;;;;;5051915;28;20537;-73
2023/08/15 01:21:56;;;;;;;9.67;5.80;;;21.90;98.00;;;;;;5035258;28;20465;-73
2023/08/15 01:24:25;;;;;;;11.30;6.20;;;21.90;98.00;;;;;;5052010;28;20493;-73
2023/08/15 01:26:52;;;;;;;12.27;6.13;;;22.00;98.00;;;;;;5051900;28;20968;-73
2023/08/15 01:29:19;;;;;;;10.73;6.70;;;22.10;98.00;;;;;;5051806;28;20446;-73
2023/08/15 01:31:54;;;;;;;12.87;6.63;;;22.00;98.00;;;;;;5051623;28;20461;-74
2023/08/15 01:34:25;;;;;;;14.03;6.60;;;21.90;98.00;;;;;;5051846;28;20448;-73
2023/08/15 01:36:58;;;;;;;14.30;6.80;;;21.90;98.00;;;;;;5051846;28;20469;-73
2023/08/15 01:39:30;;;;;;;12.57;6.73;;;21.80;98.00;;;;;;5052103;28;20450;-74
2023/08/15 01:42:00;;;;;;;10.97;6.93;;;21.80;98.00;;;;;;5051791;28;20450;-73
2023/08/15 01:44:29;;;;;;;10.50;6.27;;;21.70;98.00;;;;;;5051714;28;20481;-74
2023/08/15 01:46:58;;;;;;;13.10;6.10;;;21.80;98.00;;;;;;5051709;28;20449;-74
2023/08/15 01:49:25;;;;;;;9.60;6.17;;;22.00;98.00;;;;;;5034318;28;20450;-73
2023/08/15 01:51:54;;;;;;;10.60;6.23;;;22.10;98.00;;;;;;5051682;28;20851;-73
2023/08/15 01:54:21;;;;;;;13.70;6.97;;;22.10;98.00;;;;;;5051906;28;20454;-73
2023/08/15 01:56:49;;;;;;;14.13;6.90;;;22.10;98.00;;;;;;5055488;28;20464;-73
2023/08/15 01:59:17;;;;;;;9.80;6.40;;;22.00;98.00;;;;;;5055180;28;20450;-73
2023/08/15 02:01:44;;;;;;;12.87;6.53;;;22.00;98.00;;;;;;5055324;28;20503;-74
2023/08/15 02:04:11;;;;;;;12.33;6.70;;;22.10;98.00;;;;;;5055157;28;21007;-73
2023/08/15 02:06:38;;;;;;;10.17;6.13;;;22.20;98.00;;;;;;5054160;28;20452;-73
2023/08/15 02:09:05;;;;;;;10.30;5.80;;;22.10;98.00;;;;;;5055141;28;20446;-73
2023/08/15 02:11:33;;;;;;;14.17;6.93;;;22.00;98.00;;;;;;5055326;28;20461;-72
2023/08/15 02:14:01;;;;;;;9.43;6.00;;;21.90;98.00;;;;;;5037183;28;20450;-74
2023/08/15 02:16:28;;;;;;;11.03;6.67;;;21.90;98.00;;;;;;5055364;28;20452;-73
2023/08/15 02:18:56;;;;;;;10.90;6.50;;;21.80;98.00;;;;;;5055275;28;20456;-73
2023/08/15 02:21:23;;;;;;;12.40;6.77;;;21.70;98.00;;;;;;5055188;28;20523;-73
2023/08/15 02:23:50;;;;;;;10.73;6.40;;;21.60;98.00;;;;;;5054918;28;20488;-74
2023/08/15 02:26:17;;;;;;;10.83;5.70;;;21.70;98.00;;;;;;5055215;28;20450;-74
2023/08/15 02:28:44;;;;;;;12.27;6.23;;;21.80;98.00;;;;;;5055075;28;20450;-73
2023/08/15 02:31:12;;;;;;;9.80;6.00;;;21.90;98.00;;;;;;5054980;28;20956;-73
2023/08/15 02:33:39;;;;;;;9.83;6.17;;;21.80;98.00;;;;;;5054960;28;20449;-72
2023/08/15 02:36:07;;;;;;;12.80;6.23;;;21.70;98.00;;;;;;5055068;28;20449;-72
2023/08/15 02:38:34;;;;;;;14.00;6.67;;;21.60;98.00;;;;;;5054985;28;20473;-72
2023/08/15 02:41:01;;;;;;;8.90;5.73;;;21.60;98.00;;;;;;5054929;28;20839;-73
2023/08/15 02:43:28;;;;;;;10.53;6.27;;;21.70;98.00;;;;;;5054834;28;20512;-73
2023/08/15 02:45:56;;;;;;;10.20;6.00;;;21.80;98.00;;;;;;5054847;28;20454;-73
2023/08/15 02:48:24;;;;;;;10.53;5.80;;;21.80;98.00;;;;;;5054591;28;20829;-72
2023/08/15 02:50:51;;;;;;;11.40;6.07;;;21.70;98.00;;;;;;5054487;28;20449;-73
2023/08/15 02:53:18;;;;;;;10.80;5.50;;;21.60;98.00;;;;;;5054239;28;20445;-73
2023/08/15 02:55:49;;;;;;;10.23;5.80;;;21.60;98.00;;;;;;5054369;28;20453;-72
2023/08/15 02:58:16;;;;;;;12.87;7.00;;;21.70;98.00;;;;;;5054266;28;20823;-72
2023/08/15 03:00:44;;;;;;;12.03;6.23;;;21.70;98.00;;;;;;5054274;28;20446;-73
2023/08/15 03:03:11;;;;;;;9.90;5.90;;;21.60;98.00;;;;;;5054114;28;20465;-73
2023/08/15 03:05:40;;;;;;;13.67;6.50;;;21.50;98.00;;;;;;5054008;28;20449;-73
2023/08/15 03:08:13;;;;;;;11.50;6.47;;;21.50;98.00;;;;;;5053383;28;20921;-72
2023/08/15 03:10:40;;;;;;;10.80;6.63;;;21.40;98.00;;;;;;5054259;28;20802;-73
2023/08/15 03:13:07;;;;;;;11.33;6.30;;;21.40;98.00;;;;;;5054022;28;20454;-73
2023/08/15 03:15:37;;;;;;;12.80;6.97;;;21.40;98.00;;;;;;5054167;28;20449;-73
2023/08/15 03:18:05;;;;;;;14.57;7.13;;;21.30;98.00;;;;;;5053832;28;20474;-72
2023/08/15 03:20:32;;;;;;;12.70;7.40;;;21.30;98.00;;;;;;5053474;28;20457;-74
2023/08/15 03:23:01;;;;;;;12.43;6.23;;;21.20;98.00;;;;;;5053950;28;20476;-73
2023/08/15 03:25:28;;;;;;;14.93;6.80;;;21.20;98.00;;;;;;5054230;28;20445;-73
2023/08/15 03:27:55;;;;;;;11.90;6.03;;;21.30;98.00;;;;;;5053779;28;20951;-73
2023/08/15 03:30:22;;;;;;;21.53;8.00;;;21.30;98.00;;;;;;5053739;28;20457;-74
2023/08/15 03:32:49;;;;;;;16.13;7.40;;;21.40;98.00;;;;;;5053762;28;20942;-74
2023/08/15 03:35:17;;;;;;;15.70;7.37;;;21.30;98.00;;;;;;5053782;28;20454;-72
2023/08/15 03:37:44;;;;;;;18.90;6.90;;;21.30;98.00;;;;;;5054085;28;20450;-73
2023/08/15 03:40:13;;;;;;;9.60;5.90;;;21.20;98.00;;;;;;5053626;28;20449;-73
2023/08/15 03:42:40;;;;;;;11.83;6.60;;;21.20;98.00;;;;;;5053359;28;20465;-73
2023/08/15 03:45:07;;;;;;;12.67;6.90;;;21.40;98.00;;;;;;5053485;28;20528;-73
2023/08/15 03:47:33;;;;;;;10.33;6.30;;;21.40;98.00;;;;;;5053380;28;20481;-72
2023/08/15 03:50:00;;;;;;;9.70;6.10;;;21.40;98.00;;;;;;5053149;28;20454;-73
2023/08/15 03:52:29;;;;;;;14.10;6.50;;;21.60;98.00;;;;;;5053224;28;20780;-74
2023/08/15 03:54:56;;;;;;;11.83;6.50;;;21.70;98.00;;;;;;5053304;28;20454;-72
2023/08/15 03:57:24;;;;;;;9.13;5.93;;;21.80;98.00;;;;;;5053387;28;20472;-73
2023/08/15 03:59:51;;;;;;;13.87;6.10;;;21.70;98.00;;;;;;5053118;28;20457;-72
2023/08/15 04:02:18;;;;;;;10.67;6.30;;;21.60;98.00;;;;;;5053012;28;20457;-73
2023/08/15 04:04:46;;;;;;;10.43;6.10;;;21.60;98.00;;;;;;5052977;28;20477;-72
2023/08/15 04:07:13;;;;;;;10.17;5.37;;;21.60;98.00;;;;;;5052671;28;20507;-73
2023/08/15 04:09:40;;;;;;;13.40;6.17;;;21.50;98.00;;;;;;5053037;28;20967;-73
2023/08/15 04:12:08;;;;;;;11.13;6.33;;;21.50;98.00;;;;;;5052851;28;20458;-72
2023/08/15 04:14:36;;;;;;;8.57;6.00;;;21.40;98.00;;;;;;5053102;28;20830;-73
2023/08/15 04:17:05;;;;;;;9.20;5.73;;;21.40;98.00;;;;;;5052873;28;20454;-73
2023/08/15 04:19:32;;;;;;;10.90;6.20;;;21.30;98.00;;;;;;5052975;28;20461;-72
2023/08/15 04:21:59;;;;;;;11.33;6.60;;;21.20;98.00;;;;;;5052925;28;20457;-73
2023/08/15 04:24:26;;;;;;;11.40;6.97;;;21.20;98.00;;;;;;5052433;28;20531;-72
2023/08/15 04:26:53;;;;;;;15.83;6.50;;;21.20;98.00;;;;;;5051920;28;20446;-73
2023/08/15 04:29:20;;;;;;;11.10;6.60;;;21.10;98.00;;;;;;5051554;28;20460;-73
2023/08/15 04:31:48;;;;;;;13.87;6.70;;;21.20;98.00;;;;;;5052008;28;20465;-73
2023/08/15 04:34:16;;;;;;;11.40;6.70;;;21.40;98.00;;;;;;5051987;28;20465;-74
2023/08/15 04:36:46;;;;;;;12.07;6.87;;;21.40;98.00;;;;;;5050830;28;20480;-72
2023/08/15 04:39:13;;;;;;;16.03;6.60;;;21.30;98.00;;;;;;5051794;28;20849;-73
2023/08/15 04:41:41;;;;;;;13.20;6.23;;;21.30;98.00;;;;;;5051812;28;20955;-73
2023/08/15 04:44:08;;;;;;;12.93;6.47;;;21.10;98.00;;;;;;5051419;28;20481;-73
2023/08/15 04:46:35;;;;;;;10.40;6.40;;;20.90;98.00;;;;;;5052170;28;20460;-73
2023/08/15 04:49:04;;;;;;;12.83;6.50;;;20.90;98.00;;;;;;5052111;28;20457;-73
2023/08/15 04:51:32;;;;;;;13.20;6.43;;;20.90;98.00;;;;;;5052228;28;20464;-74
2023/08/15 04:53:59;;;;;;;11.20;6.30;;;21.10;98.00;;;;;;5052251;28;20473;-74
2023/08/15 04:56:26;;;;;;;11.40;6.53;;;21.40;98.00;;;;;;5052171;28;20446;-73
2023/08/15 04:58:53;;;;;;;14.17;6.50;;;21.40;98.00;;;;;;5052235;28;20462;-73
2023/08/15 05:01:20;;;;;;;10.80;6.40;;;21.60;98.00;;;;;;5052132;28;20454;-72
2023/08/15 05:03:47;;;;;;;12.07;5.83;;;21.40;98.00;;;;;;5052047;28;20469;-73
2023/08/15 05:06:18;;;;;;;11.20;5.70;;;21.20;98.00;;;;;;5052066;28;20454;-72
2023/08/15 05:08:45;;;;;;;10.77;6.40;;;21.20;98.00;;;;;;5050761;28;20489;-73
2023/08/15 05:11:13;;;;;;;12.20;6.33;;;21.10;98.00;;;;;;5052134;28;20914;-73
2023/08/15 05:13:40;;;;;;;9.63;6.27;;;21.10;98.00;;;;;;5051949;28;20446;-72
2023/08/15 05:16:07;;;;;;;10.30;5.70;;;21.10;98.00;;;;;;5052003;28;20446;-73
2023/08/15 05:18:35;;;;;;;9.23;5.27;;;21.20;98.00;;;;;;5051824;28;20454;-74
2023/08/15 05:21:02;;;;;;;8.63;5.50;;;21.40;98.00;;;;;;5051961;28;20450;-73
2023/08/15 05:23:30;;;;;;;11.90;6.20;;;21.30;98.00;;;;;;5051953;28;20457;-72
2023/08/15 05:25:57;;;;;;;15.57;7.10;;;21.30;98.00;;;;;;5051731;28;20488;-72
2023/08/15 05:28:24;;;;;;;11.47;6.50;;;21.30;98.00;;;;;;5051887;28;20446;-72
2023/08/15 05:30:52;;;;;;;9.60;5.37;;;21.20;98.00;;;;;;5051339;28;20450;-73
2023/08/15 05:33:19;;;;;;;11.33;6.60;;;21.20;98.00;;;;;;5051415;28;20486;-73
2023/08/15 05:35:46;;;;;;;11.20;6.73;;;21.30;98.00;;;;;;5051893;28;20476;-73
2023/08/15 05:38:13;;;;;;;17.23;6.60;;;21.40;98.00;;;;;;5051291;28;20446;-73
2023/08/15 05:40:44;;;;;;;13.63;6.50;;;21.40;98.00;;;;;;5051592;28;20449;-73
2023/08/15 05:43:11;;;;;;;12.10;6.70;;;21.30;98.00;;;;;;5051815;28;20507;-73
2023/08/15 05:45:39;;;;;;;11.90;6.90;;;21.40;98.00;;;;;;5051534;28;20829;-72
2023/08/15 05:48:07;;;;;;;11.50;6.50;;;21.40;98.00;;;;;;5051459;28;20442;-74
2023/08/15 05:50:34;;;;;;;12.30;6.73;;;21.50;98.00;;;;;;5051158;28;20453;-74
2023/08/15 05:53:02;;;;;;;13.77;6.87;;;21.50;98.00;;;;;;5051517;28;20824;-72
2023/08/15 05:55:29;;;;;;;14.40;6.80;;;21.70;98.00;;;;;;5051493;28;20453;-73
2023/08/15 05:57:58;;;;;;;12.60;6.67;;;21.80;98.00;;;;;;5051445;28;20461;-67
2023/08/15 06:00:26;;;;;;;12.00;6.90;;;21.90;98.00;;;;;;5050494;28;20530;-66
2023/08/15 06:02:53;;;;;;;12.00;6.40;;;22.10;98.00;;;;;;5051560;28;20445;-67
2023/08/15 06:05:21;;;;;;;10.77;6.70;;;22.20;98.00;;;;;;5051465;28;20485;-68
2023/08/15 06:07:49;;;;;;;11.30;6.83;;;22.20;98.00;;;;;;5051582;28;20442;-67
2023/08/15 06:10:16;;;;;;;11.10;6.60;;;22.50;98.00;;;;;;5051575;28;20445;-67
2023/08/15 06:12:43;;;;;;;16.40;7.07;;;22.60;98.00;;;;;;5051548;28;20452;-67
2023/08/15 06:15:12;;;;;;;16.33;7.07;;;22.70;98.00;;;;;;5050994;28;20445;-66
2023/08/15 06:17:39;;;;;;;11.47;6.50;;;22.80;98.00;;;;;;5050446;28;20457;-67
2023/08/15 06:20:07;;;;;;;9.40;6.00;;;22.90;98.00;;;;;;5050545;28;20457;-69
2023/08/15 06:22:34;;;;;;;10.00;5.27;;;23.00;98.00;;;;;;5050679;28;20446;-69
2023/08/15 06:25:02;;;;;;;8.97;5.73;;;23.10;98.00;;;;;;5050481;28;20517;-69
2023/08/15 06:27:29;;;;;;;17.73;6.27;;;23.20;98.00;;;;;;5050727;28;20445;-69
2023/08/15 06:29:56;;;;;;;9.40;5.30;;;23.30;98.00;;;;;;5050579;28;20467;-68
2023/08/15 06:32:28;;;;;;;9.43;5.83;;;23.40;98.00;;;;;;5050257;28;20469;-68
2023/08/15 06:34:56;;;;;;;11.17;6.07;;;23.60;98.00;;;;;;5050155;28;20964;-69
2023/08/15 06:37:23;;;;;;;12.67;6.30;;;23.60;98.00;;;;;;5050278;28;20454;-69
2023/08/15 06:39:51;;;;;;;11.27;6.27;;;23.60;98.00;;;;;;5050499;28;20450;-69
2023/08/15 06:42:18;;;;;;;12.47;6.13;;;23.60;98.00;;;;;;5052036;28;20454;-68
2023/08/15 06:44:45;;;;;;;10.43;6.43;;;23.80;98.00;;;;;;5053768;28;20477;-68
2023/08/15 06:47:12;;;;;;;9.60;5.93;;;23.90;98.00;;;;;;5053880;28;20967;-68
2023/08/15 06:49:40;;;;;;;9.80;5.80;;;23.90;98.00;;;;;;5053862;28;20446;-68
2023/08/15 06:52:08;;;;;;;8.37;5.43;;;24.00;98.00;;;;;;5053800;28;20457;-69
2023/08/15 06:54:36;;;;;;;10.13;6.00;;;24.10;98.00;;;;;;5053580;28;20507;-69
2023/08/15 06:57:03;;;;;;;15.13;6.43;;;24.20;98.00;;;;;;5053728;28;20485;-68
2023/08/15 06:59:35;;;;;;;14.27;6.20;;;24.30;98.00;;;;;;5053571;28;20460;-69
2023/08/15 07:02:02;;;;;;;10.73;6.37;;;24.30;98.00;;;;;;5053743;28;20537;-69
2023/08/15 07:04:29;;;;;;;10.40;6.13;;;24.40;98.00;;;;;;5053542;28;20450;-68
2023/08/15 07:06:58;;;;;;;9.57;6.47;;;24.50;98.00;;;;;;5053428;28;20952;-68
2023/08/15 07:09:28;;;;;;;9.60;6.13;;;24.60;98.00;;;;;;5053310;28;20450;-69
2023/08/15 07:11:56;;;;;;;10.27;6.73;;;24.70;98.00;;;;;;5053310;28;20460;-68
2023/08/15 07:14:23;;;;;;;11.17;6.90;;;24.90;98.00;;;;;;5052748;28;20469;-69
2023/08/15 07:16:51;;;;;;;9.77;6.10;;;24.90;98.00;;;;;;5053199;28;20466;-69
2023/08/15 07:19:18;;;;;;;10.40;6.33;;;24.90;98.00;;;;;;5052828;28;20874;-70
2023/08/15 07:21:48;;;;;;;12.30;6.70;;;25.00;98.00;;;;;;5053526;28;20454;-68
2023/08/15 07:24:17;;;;;;;11.33;6.17;;;25.10;98.00;;;;;;5052817;28;20461;-68
2023/08/15 07:26:44;;;;;;;10.57;6.10;;;25.30;98.00;;;;;;5053202;28;20826;-69
2023/08/15 07:29:12;;;;;;;12.30;6.60;;;25.40;98.00;;;;;;5052893;28;20454;-68
2023/08/15 07:31:39;;;;;;;9.93;6.20;;;25.50;98.00;;;;;;5052868;28;20458;-69
2023/08/15 07:34:06;;;;;;;13.40;6.60;;;25.50;98.00;;;;;;5052598;28;20948;-70
2023/08/15 07:36:34;;;;;;;11.03;6.50;;;25.50;98.00;;;;;;5053515;28;21101;-71
2023/08/15 07:39:01;;;;;;;14.80;6.80;;;25.50;98.00;;;;;;5053460;28;20999;-71
2023/08/15 07:41:30;;;;;;;12.67;6.70;;;25.40;98.00;;;;;;5053377;28;20952;-69
2023/08/15 07:43:57;;;;;;;10.33;6.90;;;25.70;98.00;;;;;;5053191;28;20446;-71
2023/08/15 07:46:24;;;;;;;17.47;7.10;;;25.70;98.00;;;;;;5053421;28;20501;-66
2023/08/15 07:48:51;;;;;;;10.17;6.80;;;25.70;98.00;;;;;;5035642;28;20450;-66
2023/08/15 07:51:18;;;;;;;10.43;6.50;;;25.70;98.00;;;;;;5053477;28;20990;-68
2023/08/15 07:53:46;;;;;;;11.73;7.10;;;25.70;98.00;;;;;;5052745;28;20545;-66
2023/08/15 07:56:13;;;;;;;11.27;7.50;;;25.70;98.00;;;;;;5053344;28;20481;-66
2023/08/15 07:58:41;;;;;;;12.33;7.20;;;25.80;98.00;;;;;;5052793;28;20473;-67
2023/08/15 08:01:09;;;;;;;11.20;6.80;;;25.70;98.00;;;;;;5053341;28;20441;-67
2023/08/15 08:03:38;;;;;;;13.43;7.30;;;25.80;98.00;;;;;;5052973;28;20987;-66
2023/08/15 08:06:05;;;;;;;10.70;6.67;;;25.80;98.00;;;;;;5053050;28;20485;-67
2023/08/15 08:08:32;;;;;;;12.90;7.60;;;25.80;98.00;;;;;;5053280;28;20477;-66
2023/08/15 08:10:59;;;;;;;12.57;7.50;;;26.00;98.00;;;;;;5053057;28;20446;-66
2023/08/15 08:13:27;;;;;;;12.03;6.60;;;26.00;98.00;;;;;;5035634;28;20792;-67
2023/08/15 08:15:55;;;;;;;10.73;6.60;;;26.00;98.00;;;;;;5053345;28;20461;-67
2023/08/15 08:18:22;;;;;;;10.87;6.60;;;26.10;98.00;;;;;;5053097;28;20457;-66
2023/08/15 08:20:49;;;;;;;11.20;7.00;;;26.20;98.00;;;;;;5052676;28;20448;-67
2023/08/15 08:23:17;;;;;;;11.70;7.20;;;26.20;98.00;;;;;;5052722;28;20575;-66
2023/08/15 08:25:45;;;;;;;10.83;6.87;;;26.20;98.00;;;;;;5052613;28;20837;-66
2023/08/15 08:28:13;;;;;;;14.07;7.90;;;26.20;98.00;;;;;;5052616;28;20454;-67
2023/08/15 08:30:42;;;;;;;10.67;6.33;;;26.30;98.00;;;;;;5052805;28;20457;-66
2023/08/15 08:33:13;;;;;;;13.50;7.80;;;26.40;98.00;;;;;;5052258;28;20540;-67
2023/08/15 08:35:40;;;;;;;10.33;6.60;;;26.60;98.00;;;;;;5052686;28;20454;-67
2023/08/15 08:38:07;;;;;;;10.60;6.63;;;26.90;98.00;;;;;;5018266;28;20812;-67
2023/08/15 08:40:35;;;;;;;13.07;7.40;;;27.10;98.00;;;;;;5052682;28;20449;-67
2023/08/15 08:43:02;;;;;;;12.17;7.37;;;27.30;98.00;;;;;;5052333;28;20458;-67
2023/08/15 08:45:31;;;;;;;10.20;6.87;;;27.40;98.00;;;;;;5052294;28;20485;-66
2023/08/15 08:47:59;;;;;;;11.27;7.00;;;27.50;98.00;;;;;;5052313;28;20977;-67
2023/08/15 08:50:30;;;;;;;12.20;7.63;;;27.50;98.00;;;;;;5052398;28;20458;-67
2023/08/15 08:52:57;;;;;;;14.03;8.27;;;27.50;98.00;;;;;;5052360;28;20818;-67
2023/08/15 08:55:26;;;;;;;14.53;7.80;;;27.50;98.00;;;;;;5052441;28;20449;-66
2023/08/15 08:57:54;;;;;;;12.80;7.67;;;27.50;98.00;;;;;;5052129;28;20452;-67
2023/08/15 09:00:29;;;;;;;15.43;6.90;;;27.30;98.00;;;;;;5034471;28;20449;-67
2023/08/15 09:02:56;;;;;;;15.30;7.77;;;27.30;98.00;;;;;;5052075;28;20457;-67
2023/08/15 09:05:24;;;;;;;11.03;7.60;;;27.30;98.00;;;;;;5051389;28;21130;-67
2023/08/15 09:07:52;;;;;;;14.77;8.00;;;27.30;98.00;;;;;;5052084;28;20527;-67
2023/08/15 09:10:21;;;;;;;13.53;7.70;;;27.40;98.00;;;;;;5052487;28;20445;-67
2023/08/15 09:12:48;;;;;;;11.20;6.90;;;27.50;98.00;;;;;;5051976;28;20821;-67
2023/08/15 09:15:16;;;;;;;11.67;7.50;;;27.60;98.00;;;;;;5051961;28;20454;-67
2023/08/15 09:17:43;;;;;;;16.93;7.63;;;27.70;98.00;;;;;;5034114;28;20450;-67
2023/08/15 09:20:13;;;;;;;15.33;7.63;;;27.90;98.00;;;;;;5051553;28;20453;-67
2023/08/15 09:22:44;;;;;;;12.63;7.40;;;28.10;98.00;;;;;;5051502;28;20454;-67
2023/08/15 09:25:20;;;;;;;11.93;8.13;;;28.20;98.00;;;;;;5051543;28;20536;-67
2023/08/15 09:27:48;;;;;;;12.70;8.13;;;28.20;98.00;;;;;;5051266;28;20449;-67
2023/08/15 09:30:16;;;;;;;12.93;7.53;;;28.30;98.00;;;;;;5051769;28;20494;-67
2023/08/15 09:32:44;;;;;;;10.70;7.10;;;28.30;98.00;;;;;;5051473;28;20462;-67
2023/08/15 09:35:13;;;;;;;11.57;7.60;;;28.40;98.00;;;;;;5051426;28;20811;-66
2023/08/15 09:37:42;;;;;;;10.93;7.20;;;28.50;98.00;;;;;;5051721;28;20454;-66
2023/08/15 09:40:14;;;;;;;11.17;7.13;;;28.60;98.00;;;;;;5051619;28;20489;-66
2023/08/15 09:42:43;;;;;;;10.20;7.23;;;28.70;98.00;;;;;;5051733;28;20936;-66
2023/08/15 09:45:12;;;;;;;17.40;7.63;;;28.70;98.00;;;;;;5050143;28;20990;-68
2023/08/15 09:47:39;;;;;;;11.43;7.00;;;28.70;98.00;;;;;;5051136;28;20457;-66
2023/08/15 09:50:08;;;;;;;10.33;6.70;;;28.60;98.00;;;;;;5051542;28;20482;-67
2023/08/15 09:52:38;;;;;;;14.00;7.40;;;28.60;98.00;;;;;;5051528;28;20457;-66
2023/08/15 09:55:08;;;;;;;10.50;6.20;;;28.50;98.00;;;;;;5051593;28;20481;-67
2023/08/15 09:57:44;;;;;;;13.03;7.70;;;28.50;98.00;;;;;;5051389;28;20493;-67
2023/08/15 10:00:13;;;;;;;14.40;7.30;;;28.50;98.00;;;;;;5051239;28;20489;-67
2023/08/15 10:02:50;;;;;;;13.43;7.10;;;28.50;98.00;;;;;;5051312;28;20519;-66
2023/08/15 10:05:21;;;;;;;14.70;6.87;;;28.50;98.00;;;;;;5031428;28;20856;-66
2023/08/15 10:07:50;;;;;;;13.43;6.80;;;28.50;98.00;;;;;;5031329;28;20477;-66
2023/08/15 10:10:18;;;;;;;9.13;6.00;;;28.30;98.00;;;;;;5031227;28;20450;-67
2023/08/15 10:12:48;;;;;;;14.27;6.90;;;28.30;98.00;;;;;;5031122;28;20459;-66
2023/08/15 10:15:16;;;;;;;13.83;6.37;;;28.40;98.00;;;;;;5031301;28;20802;-66
2023/08/15 10:17:43;;;;;;;10.30;6.30;;;28.30;98.00;;;;;;5034523;28;20458;-67
2023/08/15 10:20:12;;;;;;;15.13;6.50;;;28.20;98.00;;;;;;5035042;28;20453;-66
2023/08/15 10:22:40;;;;;;;10.80;6.60;;;28.20;98.00;;;;;;5034912;28;20451;-67
2023/08/15 10:25:21;;;;;;;14.97;7.07;;;28.30;98.00;;;;;;5034728;28;20524;-66
2023/08/15 10:27:52;;;;;;;10.20;6.50;;;28.40;98.00;;;;;;5034837;28;20486;-66
2023/08/15 10:30:30;;;;;;;10.13;6.07;;;28.50;98.00;;;;;;5034754;28;20454;-67
2023/08/15 10:33:01;;;;;;;11.93;5.97;;;28.70;98.00;;;;;;5034467;28;20462;-67
2023/08/15 10:35:39;;;;;;;15.30;7.53;;;28.80;98.00;;;;;;5035028;28;20470;-67
2023/08/15 10:38:14;;;;;;;12.33;6.97;;;29.00;98.00;;;;;;5034661;28;20458;-67
2023/08/15 10:40:43;;;;;;;10.97;6.53;;;29.00;98.00;;;;;;5034671;28;20465;-66
2023/08/15 10:43:12;;;;;;;10.90;6.50;;;29.10;98.00;;;;;;5034656;28;20469;-67
2023/08/15 10:45:45;;;;;;;10.87;6.90;;;29.20;98.00;;;;;;5034680;28;20450;-66
2023/08/15 10:48:12;;;;;;;10.60;6.93;;;29.30;98.00;;;;;;5034475;28;20929;-66
2023/08/15 10:50:48;;;;;;;11.30;6.93;;;29.40;98.00;;;;;;5034670;28;20454;-67
2023/08/15 10:53:16;;;;;;;9.90;6.23;;;29.50;98.00;;;;;;5034614;28;20462;-67
2023/08/15 10:55:43;;;;;;;9.03;5.30;;;29.40;98.00;;;;;;5034667;28;20451;-68
2023/08/15 10:58:12;;;;;;;8.73;4.63;;;29.40;98.00;;;;;;5034507;28;20820;-67
2023/08/15 11:00:41;;;;;;;7.10;4.20;;;29.40;98.00;;;;;;5017174;28;20458;-67
2023/08/15 11:03:09;;;;;;;6.50;4.03;;;29.50;98.00;;;;;;5034256;28;20486;-66
2023/08/15 11:05:36;;;;;;;8.63;3.87;;;29.60;98.00;;;;;;5016919;28;20458;-67
2023/08/15 11:08:15;;;;;;;10.67;4.20;;;29.60;98.00;;;;;;5033941;28;20455;-67
2023/08/15 11:10:46;;;;;;;5.70;3.70;;;29.70;98.00;;;;;;5034267;28;20446;-66
2023/08/15 11:13:15;;;;;;;7.53;3.57;;;29.80;98.00;;;;;;5033788;28;20451;-67
2023/08/15 11:15:43;;;;;;;6.13;3.83;;;29.80;98.00;;;;;;5034085;28;20447;-67
2023/08/15 11:18:11;;;;;;;9.53;4.20;;;29.90;98.00;;;;;;5033702;28;20454;-67
2023/08/15 11:20:39;;;;;;;4.40;3.30;;;29.90;98.00;;;;;;5033844;28;20462;-67
2023/08/15 11:23:07;;;;;;;5.87;4.10;;;29.90;98.00;;;;;;5033310;28;20473;-66
2023/08/15 11:25:34;;;;;;;10.13;4.03;;;29.70;98.00;;;;;;5033954;28;20956;-67
2023/08/15 11:28:01;;;;;;;8.53;4.40;;;29.60;98.00;;;;;;5032746;28;20451;-67
2023/08/15 11:30:30;;;;;;;8.37;3.97;;;29.60;98.00;;;;;;5033807;28;20864;-66
2023/08/15 11:32:57;;;;;;;6.43;4.00;;;29.60;98.00;;;;;;5033388;28;20953;-67
2023/08/15 11:35:25;;;;;;;5.60;3.93;;;29.60;98.00;;;;;;5033765;28;20451;-66
2023/08/15 11:37:52;;;;;;;7.60;4.00;;;29.80;98.00;;;;;;5032863;28;20952;-66
2023/08/15 11:40:19;;;;;;;6.47;3.73;;;29.90;98.00;;;;;;5033675;28;20443;-66
2023/08/15 11:42:47;;;;;;;6.37;4.10;;;30.00;98.00;;;;;;5033644;28;20481;-66
2023/08/15 11:45:19;;;;;;;6.50;4.20;;;30.20;98.00;;;;;;5033139;28;20458;-65
2023/08/15 11:47:56;;;;;;;6.33;4.20;;;30.10;98.00;;;;;;5033384;28;20490;-66
2023/08/15 11:50:25;;;;;;;8.00;4.37;;;30.50;98.00;;;;;;5033781;28;20451;-66
2023/08/15 11:52:53;;;;;;;7.37;4.00;;;30.90;98.00;;;;;;5033259;28;20482;-66
2023/08/15 11:55:20;;;;;;;5.70;3.87;;;31.30;93.70;;;;;;5033654;28;20480;-66
2023/08/15 11:57:47;;;;;;;5.30;3.90;;;31.70;97.50;;;;;;5033033;28;21027;-66
2023/08/15 12:00:18;;;;;;;5.67;4.33;;;31.70;96.00;;;;;;5033476;28;20451;-67
2023/08/15 12:02:46;;;;;;;4.60;3.80;;;31.70;95.40;;;;;;5015393;28;20470;-67
2023/08/15 12:05:16;;;;;;;5.40;3.87;;;31.70;94.20;;;;;;5033396;28;20459;-67
2023/08/15 12:07:44;;;;;;;6.37;4.00;;;31.70;93.10;;;;;;5032905;28;20489;-66
2023/08/15 12:10:13;;;;;;;4.83;3.10;;;31.70;91.70;;;;;;5032753;28;20458;-67
2023/08/15 12:12:42;;;;;;;9.50;3.50;;;31.50;88.80;;;;;;5033126;28;20872;-67
2023/08/15 12:15:11;;;;;;;6.70;3.00;;;31.30;90.40;;;;;;5032960;28;20458;-66
2023/08/15 12:17:39;;;;;;;5.37;3.37;;;31.30;89.10;;;;;;5032906;28;20459;-67
2023/08/15 12:20:09;;;;;;;5.63;3.50;;;31.50;90.00;;;;;;5032787;28;20925;-67
2023/08/15 12:22:39;;;;;;;5.10;3.50;;;31.60;88.00;;;;;;5032739;28;20453;-67
2023/08/15 12:25:07;;;;;;;5.93;3.60;;;32.00;88.00;;;;;;5032706;28;20456;-67
2023/08/15 12:27:34;;;;;;;6.83;3.43;;;32.40;89.20;;;;;;5032027;28;20482;-67
2023/08/15 12:30:01;;;;;;;4.50;3.40;;;32.70;87.70;;;;;;5031828;28;20451;-66
2023/08/15 12:32:28;;;;;;;5.93;3.97;;;33.30;92.20;;;;;;5031857;28;20470;-67
2023/08/15 12:34:56;;;;;;;6.27;3.80;;;33.60;89.00;;;;;;5031746;28;20461;-66
2023/08/15 12:37:23;;;;;;;6.40;3.80;;;33.90;87.30;;;;;;5032036;28;20451;-67
2023/08/15 12:39:51;;;;;;;5.57;3.87;;;34.20;87.50;;;;;;5031781;28;20455;-66
2023/08/15 12:42:19;;;;;;;7.30;3.67;;;34.50;87.10;;;;;;5031904;28;20455;-67